sensor_id;sensor_type;location;lat;lon;timestamp;pressure;altitude;pressure_sealevel;temperature;humidity
12763;BME280;6445;52.490;13.378;2022-11-20T00:00:37;111133.81;;;-146.10;99.58
12763;BME280;6445;52.490;13.378;2022-11-20T00:03:02;111133.81;;;-146.10;99.37
12763;BME280;6445;52.490;13.378;2022-11-20T00:05:28;111133.81;;;-146.10;99.42
12763;BME280;6445;52.490;13.378;2022-11-20T00:07:53;110873.97;;;-146.10;99.13
12763;BME280;6445;52.490;13.378;2022-11-20T00:10:18;110873.97;;;-146.10;99.29
12763;BME280;6445;52.490;13.378;2022-11-20T00:12:43;110614.13;;;-146.10;99.01
12763;BME280;6445;52.490;13.378;2022-11-20T00:15:09;110614.13;;;-146.10;99.19
12763;BME280;6445;52.490;13.378;2022-11-20T00:17:35;110354.31;;;-146.10;98.97
12763;BME280;6445;52.490;13.378;2022-11-20T00:20:00;110094.50;;;-146.10;98.97
12763;BME280;6445;52.490;13.378;2022-11-20T00:22:25;109834.72;;;-146.10;98.72
12763;BME280;6445;52.490;13.378;2022-11-20T00:24:50;109834.72;;;-146.10;98.59
12763;BME280;6445;52.490;13.378;2022-11-20T00:27:16;109834.72;;;-146.10;98.50
12763;BME280;6445;52.490;13.378;2022-11-20T00:29:41;109834.72;;;-146.10;98.55
12763;BME280;6445;52.490;13.378;2022-11-20T00:32:06;109315.19;;;-146.10;98.09
12763;BME280;6445;52.490;13.378;2022-11-20T00:34:31;109055.47;;;-146.10;98.48
12763;BME280;6445;52.490;13.378;2022-11-20T00:36:56;109055.47;;;-146.10;98.19
12763;BME280;6445;52.490;13.378;2022-11-20T00:39:22;108795.75;;;-146.10;98.19
12763;BME280;6445;52.490;13.378;2022-11-20T00:41:47;108536.03;;;-146.10;98.12
12763;BME280;6445;52.490;13.378;2022-11-20T00:44:12;108016.69;;;-146.10;97.47
12763;BME280;6445;52.490;13.378;2022-11-20T00:46:37;107757.03;;;-146.10;97.71
12763;BME280;6445;52.490;13.378;2022-11-20T00:49:03;108016.69;;;-146.10;97.64
12763;BME280;6445;52.490;13.378;2022-11-20T00:51:28;107757.03;;;-146.10;97.47
12763;BME280;6445;52.490;13.378;2022-11-20T00:53:57;107757.03;;;-146.10;97.56
12763;BME280;6445;52.490;13.378;2022-11-20T00:56:23;107757.03;;;-146.10;97.52
12763;BME280;6445;52.490;13.378;2022-11-20T00:58:48;107757.03;;;-146.10;97.59
12763;BME280;6445;52.490;13.378;2022-11-20T01:01:23;107497.38;;;-146.10;97.43
12763;BME280;6445;52.490;13.378;2022-11-20T01:03:53;107497.38;;;-146.10;97.64
12763;BME280;6445;52.490;13.378;2022-11-20T01:06:23;107757.03;;;-146.10;97.38
12763;BME280;6445;52.490;13.378;2022-11-20T01:08:50;107757.03;;;-146.10;97.79
12763;BME280;6445;52.490;13.378;2022-11-20T01:11:18;107757.03;;;-146.10;97.54
12763;BME280;6445;52.490;13.378;2022-11-20T01:13:45;107757.03;;;-146.10;97.54
12763;BME280;6445;52.490;13.378;2022-11-20T01:18:39;106978.16;;;-146.10;97.22
12763;BME280;6445;52.490;13.378;2022-11-20T01:21:08;106978.16;;;-146.10;97.10
12763;BME280;6445;52.490;13.378;2022-11-20T01:23:35;106978.16;;;-146.10;97.27
12763;BME280;6445;52.490;13.378;2022-11-20T01:26:02;106718.56;;;-146.10;97.24
12763;BME280;6445;52.490;13.378;2022-11-20T01:28:28;106199.44;;;-146.10;96.79
12763;BME280;6445;52.490;13.378;2022-11-20T01:30:54;105939.91;;;-146.10;96.79
12763;BME280;6445;52.490;13.378;2022-11-20T01:33:19;105680.38;;;-146.10;96.53
12763;BME280;6445;52.490;13.378;2022-11-20T01:35:44;105680.38;;;-146.10;96.45
12763;BME280;6445;52.490;13.378;2022-11-20T01:38:09;105420.88;;;-146.10;96.32
12763;BME280;6445;52.490;13.378;2022-11-20T01:40:35;105420.88;;;-146.10;96.52
12763;BME280;6445;52.490;13.378;2022-11-20T01:43:14;105420.88;;;-146.10;96.33
12763;BME280;6445;52.490;13.378;2022-11-20T01:46:03;104642.47;;;-146.10;96.14
12763;BME280;6445;52.490;13.378;2022-11-20T01:48:33;104383.03;;;-146.10;96.09
12763;BME280;6445;52.490;13.378;2022-11-20T01:50:59;103864.19;;;-146.10;95.79
12763;BME280;6445;52.490;13.378;2022-11-20T01:53:30;104123.59;;;-146.10;95.99
12763;BME280;6445;52.490;13.378;2022-11-20T01:55:59;102826.75;;;-146.10;95.47
12763;BME280;6445;52.490;13.378;2022-11-20T01:58:33;102048.81;;;-146.10;95.04
12763;BME280;6445;52.490;13.378;2022-11-20T02:00:59;102567.41;;;-146.10;95.54
12763;BME280;6445;52.490;13.378;2022-11-20T02:03:25;102567.41;;;-146.10;95.28
12763;BME280;6445;52.490;13.378;2022-11-20T02:06:14;102826.75;;;-146.10;95.59
12763;BME280;6445;52.490;13.378;2022-11-20T02:08:41;103604.81;;;-146.10;95.61
12763;BME280;6445;52.490;13.378;2022-11-20T02:11:07;103345.44;;;-146.10;95.94
12763;BME280;6445;52.490;13.378;2022-11-20T02:13:33;103086.06;;;-146.10;95.69
12763;BME280;6445;52.490;13.378;2022-11-20T02:16:23;102048.81;;;-146.10;94.96
12763;BME280;6445;52.490;13.378;2022-11-20T02:18:50;101789.53;;;-146.10;95.30
12763;BME280;6445;52.490;13.378;2022-11-20T02:21:35;101530.28;;;-146.10;94.84
12763;BME280;6445;52.490;13.378;2022-11-20T02:24:12;100493.44;;;-146.10;94.61
12763;BME280;6445;52.490;13.378;2022-11-20T02:26:51;99975.09;;;-146.10;94.27
12763;BME280;6445;52.490;13.378;2022-11-20T02:29:21;100493.44;;;-146.10;94.82
12763;BME280;6445;52.490;13.378;2022-11-20T02:31:48;100752.63;;;-146.10;94.66
12763;BME280;6445;52.490;13.378;2022-11-20T02:34:13;100493.44;;;-146.10;94.40
12763;BME280;6445;52.490;13.378;2022-11-20T02:36:40;100493.44;;;-146.10;94.64
12763;BME280;6445;52.490;13.378;2022-11-20T02:39:07;101271.06;;;-146.10;95.04
12763;BME280;6445;52.490;13.378;2022-11-20T02:41:35;101011.81;;;-146.10;94.93
12763;BME280;6445;52.490;13.378;2022-11-20T02:44:02;101011.81;;;-146.10;94.92
12763;BME280;6445;52.490;13.378;2022-11-20T02:46:28;100752.63;;;-146.10;94.98
12763;BME280;6445;52.490;13.378;2022-11-20T02:48:53;100752.63;;;-146.10;94.63
12763;BME280;6445;52.490;13.378;2022-11-20T02:51:18;101011.81;;;-146.10;94.78
12763;BME280;6445;52.490;13.378;2022-11-20T02:53:43;100493.44;;;-146.10;94.57
12763;BME280;6445;52.490;13.378;2022-11-20T02:56:09;100493.44;;;-146.10;94.56
12763;BME280;6445;52.490;13.378;2022-11-20T02:58:34;100234.25;;;-146.10;94.80
12763;BME280;6445;52.490;13.378;2022-11-20T03:01:00;100493.44;;;-146.10;94.89
12763;BME280;6445;52.490;13.378;2022-11-20T03:03:25;100493.44;;;-146.10;94.70
12763;BME280;6445;52.490;13.378;2022-11-20T03:05:50;99715.97;;;-146.10;94.59
12763;BME280;6445;52.490;13.378;2022-11-20T03:08:15;99197.72;;;-146.10;94.09
12763;BME280;6445;52.490;13.378;2022-11-20T03:10:41;98938.63;;;-146.10;94.24
12763;BME280;6445;52.490;13.378;2022-11-20T03:13:06;98679.56;;;-146.10;94.31
12763;BME280;6445;52.490;13.378;2022-11-20T03:15:31;98938.63;;;-146.10;94.10
12763;BME280;6445;52.490;13.378;2022-11-20T03:17:56;99456.84;;;-146.10;94.46
12763;BME280;6445;52.490;13.378;2022-11-20T03:20:22;100493.44;;;-146.10;94.62
12763;BME280;6445;52.490;13.378;2022-11-20T03:22:48;100493.44;;;-146.10;94.68
12763;BME280;6445;52.490;13.378;2022-11-20T03:25:13;100752.63;;;-146.10;94.68
12763;BME280;6445;52.490;13.378;2022-11-20T03:27:38;101011.81;;;-146.10;95.06
12763;BME280;6445;52.490;13.378;2022-11-20T03:30:04;100493.44;;;-146.10;94.59
12763;BME280;6445;52.490;13.378;2022-11-20T03:32:30;99975.09;;;-146.10;94.58
12763;BME280;6445;52.490;13.378;2022-11-20T03:34:55;99197.72;;;-146.10;94.15
12763;BME280;6445;52.490;13.378;2022-11-20T03:37:20;98938.63;;;-146.10;94.11
12763;BME280;6445;52.490;13.378;2022-11-20T03:39:46;99197.72;;;-146.10;94.40
12763;BME280;6445;52.490;13.378;2022-11-20T03:42:11;97902.44;;;-146.10;93.74
12763;BME280;6445;52.490;13.378;2022-11-20T03:44:59;96607.56;;;-146.10;93.51
12763;BME280;6445;52.490;13.378;2022-11-20T03:47:24;96089.72;;;-146.10;93.24
12763;BME280;6445;52.490;13.378;2022-11-20T03:49:50;96089.72;;;-146.10;93.12
12763;BME280;6445;52.490;13.378;2022-11-20T03:52:15;95571.97;;;-146.10;93.00
12763;BME280;6445;52.490;13.378;2022-11-20T03:54:40;95571.97;;;-146.10;93.33
12763;BME280;6445;52.490;13.378;2022-11-20T03:57:05;96348.63;;;-146.10;93.38
12763;BME280;6445;52.490;13.378;2022-11-20T03:59:31;96089.72;;;-146.10;93.37
12763;BME280;6445;52.490;13.378;2022-11-20T04:01:56;95313.09;;;-146.10;93.12
12763;BME280;6445;52.490;13.378;2022-11-20T04:04:21;95830.84;;;-146.10;93.11
12763;BME280;6445;52.490;13.378;2022-11-20T04:06:46;95313.09;;;-146.10;93.26
12763;BME280;6445;52.490;13.378;2022-11-20T04:09:12;96348.63;;;-146.10;93.78
12763;BME280;6445;52.490;13.378;2022-11-20T04:11:39;96089.72;;;-146.10;93.47
12763;BME280;6445;52.490;13.378;2022-11-20T04:14:06;97125.47;;;-146.10;93.67
12763;BME280;6445;52.490;13.378;2022-11-20T04:16:36;97384.44;;;-146.10;93.77
12763;BME280;6445;52.490;13.378;2022-11-20T04:19:03;97902.44;;;-146.10;94.07
12763;BME280;6445;52.490;13.378;2022-11-20T04:21:29;97384.44;;;-146.10;94.01
12763;BME280;6445;52.490;13.378;2022-11-20T04:23:55;98679.56;;;-146.10;94.50
12763;BME280;6445;52.490;13.378;2022-11-20T04:26:22;98420.50;;;-146.10;94.19
12763;BME280;6445;52.490;13.378;2022-11-20T04:28:48;98938.63;;;-146.10;94.39
12763;BME280;6445;52.490;13.378;2022-11-20T04:31:15;98938.63;;;-146.10;94.27
12763;BME280;6445;52.490;13.378;2022-11-20T04:33:41;97902.44;;;-146.10;93.75
12763;BME280;6445;52.490;13.378;2022-11-20T04:36:10;94536.63;;;-146.10;92.80
12763;BME280;6445;52.490;13.378;2022-11-20T04:38:36;93760.28;;;-146.10;92.78
12763;BME280;6445;52.490;13.378;2022-11-20T04:41:03;94536.63;;;-146.10;93.24
12763;BME280;6445;52.490;13.378;2022-11-20T04:43:30;95054.25;;;-146.10;93.00
12763;BME280;6445;52.490;13.378;2022-11-20T04:45:57;95313.09;;;-146.10;93.39
12763;BME280;6445;52.490;13.378;2022-11-20T04:48:23;95830.84;;;-146.10;93.17
12763;BME280;6445;52.490;13.378;2022-11-20T04:50:48;96866.50;;;-146.10;93.99
12763;BME280;6445;52.490;13.378;2022-11-20T04:53:14;97902.44;;;-146.10;93.86
12763;BME280;6445;52.490;13.378;2022-11-20T04:55:39;97125.47;;;-146.10;93.51
12763;BME280;6445;52.490;13.378;2022-11-20T04:58:05;97125.47;;;-146.10;93.78
12763;BME280;6445;52.490;13.378;2022-11-20T05:00:30;97384.44;;;-146.10;93.71
12763;BME280;6445;52.490;13.378;2022-11-20T05:02:55;97902.44;;;-146.10;93.72
12763;BME280;6445;52.490;13.378;2022-11-20T05:05:20;97384.44;;;-146.10;93.84
12763;BME280;6445;52.490;13.378;2022-11-20T05:07:45;97902.44;;;-146.10;94.04
12763;BME280;6445;52.490;13.378;2022-11-20T05:10:11;97643.44;;;-146.10;93.70
12763;BME280;6445;52.490;13.378;2022-11-20T05:12:36;97643.44;;;-146.10;94.05
12763;BME280;6445;52.490;13.378;2022-11-20T05:15:01;97125.47;;;-146.10;93.83
12763;BME280;6445;52.490;13.378;2022-11-20T05:17:27;97125.47;;;-146.10;93.74
12763;BME280;6445;52.490;13.378;2022-11-20T05:19:52;97384.44;;;-146.10;93.93
12763;BME280;6445;52.490;13.378;2022-11-20T05:22:17;97125.47;;;-146.10;93.52
12763;BME280;6445;52.490;13.378;2022-11-20T05:24:43;96607.56;;;-146.10;93.41
12763;BME280;6445;52.490;13.378;2022-11-20T05:27:09;96866.50;;;-146.10;93.65
12763;BME280;6445;52.490;13.378;2022-11-20T05:29:34;97125.47;;;-146.10;93.65
12763;BME280;6445;52.490;13.378;2022-11-20T05:31:59;97643.44;;;-146.10;93.99
12763;BME280;6445;52.490;13.378;2022-11-20T05:34:24;97384.44;;;-146.10;93.64
12763;BME280;6445;52.490;13.378;2022-11-20T05:36:50;96607.56;;;-146.10;93.44
12763;BME280;6445;52.490;13.378;2022-11-20T05:39:15;97125.47;;;-146.10;93.79
12763;BME280;6445;52.490;13.378;2022-11-20T05:41:40;96866.50;;;-146.10;93.45
12763;BME280;6445;52.490;13.378;2022-11-20T05:44:05;96089.72;;;-146.10;93.16
12763;BME280;6445;52.490;13.378;2022-11-20T05:46:31;96607.56;;;-146.10;93.49
12763;BME280;6445;52.490;13.378;2022-11-20T05:48:57;97384.44;;;-146.10;93.86
12763;BME280;6445;52.490;13.378;2022-11-20T05:51:22;97643.44;;;-146.10;93.92
12763;BME280;6445;52.490;13.378;2022-11-20T05:53:48;97902.44;;;-146.10;94.01
12763;BME280;6445;52.490;13.378;2022-11-20T05:56:16;97125.47;;;-146.10;93.52
12763;BME280;6445;52.490;13.378;2022-11-20T05:58:43;96348.63;;;-146.10;93.53
12763;BME280;6445;52.490;13.378;2022-11-20T06:01:19;96607.56;;;-146.10;93.53
12763;BME280;6445;52.490;13.378;2022-11-20T06:03:46;96348.63;;;-146.10;93.15
12763;BME280;6445;52.490;13.378;2022-11-20T06:06:13;95571.97;;;-146.10;93.10
12763;BME280;6445;52.490;13.378;2022-11-20T06:08:39;95571.97;;;-146.10;93.04
12763;BME280;6445;52.490;13.378;2022-11-20T06:11:08;95313.09;;;-146.10;92.97
12763;BME280;6445;52.490;13.378;2022-11-20T06:13:34;95313.09;;;-146.10;93.19
12763;BME280;6445;52.490;13.378;2022-11-20T06:15:59;95571.97;;;-146.10;93.14
12763;BME280;6445;52.490;13.378;2022-11-20T06:18:26;95830.84;;;-146.10;93.10
12763;BME280;6445;52.490;13.378;2022-11-20T06:21:09;96089.72;;;-146.10;93.46
12763;BME280;6445;52.490;13.378;2022-11-20T06:23:35;96089.72;;;-146.10;93.29
12763;BME280;6445;52.490;13.378;2022-11-20T06:26:05;95830.84;;;-146.10;93.20
12763;BME280;6445;52.490;13.378;2022-11-20T06:28:31;95054.25;;;-146.10;92.86
12763;BME280;6445;52.490;13.378;2022-11-20T06:30:57;94795.44;;;-146.10;92.75
12763;BME280;6445;52.490;13.378;2022-11-20T06:33:22;95313.09;;;-146.10;93.21
12763;BME280;6445;52.490;13.378;2022-11-20T06:35:47;95830.84;;;-146.10;93.18
12763;BME280;6445;52.490;13.378;2022-11-20T06:38:13;95054.25;;;-146.10;92.96
12763;BME280;6445;52.490;13.378;2022-11-20T06:40:41;94795.44;;;-146.10;92.94
12763;BME280;6445;52.490;13.378;2022-11-20T06:43:10;94536.63;;;-146.10;92.73
12763;BME280;6445;52.490;13.378;2022-11-20T06:45:36;92725.41;;;-146.10;92.45
12763;BME280;6445;52.490;13.378;2022-11-20T06:48:01;92208.09;;;-146.10;91.99
12763;BME280;6445;52.490;13.378;2022-11-20T06:50:27;90915.03;;;-146.10;91.66
12763;BME280;6445;52.490;13.378;2022-11-20T06:52:52;89880.88;;;-146.10;91.53
12763;BME280;6445;52.490;13.378;2022-11-20T06:55:17;90397.91;;;-146.10;92.01
12763;BME280;6445;52.490;13.378;2022-11-20T06:57:43;90915.03;;;-146.10;91.95
12763;BME280;6445;52.490;13.378;2022-11-20T07:00:08;91690.81;;;-146.10;92.25
12763;BME280;6445;52.490;13.378;2022-11-20T07:02:34;91690.81;;;-146.10;92.21
12763;BME280;6445;52.490;13.378;2022-11-20T07:04:59;91173.59;;;-146.10;92.10
12763;BME280;6445;52.490;13.378;2022-11-20T07:07:24;91690.81;;;-146.10;92.07
12763;BME280;6445;52.490;13.378;2022-11-20T07:09:49;91173.59;;;-146.10;91.71
12763;BME280;6445;52.490;13.378;2022-11-20T07:12:15;90915.03;;;-146.10;92.24
12763;BME280;6445;52.490;13.378;2022-11-20T07:14:40;90397.91;;;-146.10;91.60
12763;BME280;6445;52.490;13.378;2022-11-20T07:17:05;89880.88;;;-146.10;91.49
12763;BME280;6445;52.490;13.378;2022-11-20T07:19:31;90139.41;;;-146.10;91.70
12763;BME280;6445;52.490;13.378;2022-11-20T07:21:56;89880.88;;;-146.10;91.77
12763;BME280;6445;52.490;13.378;2022-11-20T07:24:21;88588.56;;;-146.10;91.02
12763;BME280;6445;52.490;13.378;2022-11-20T07:26:47;88588.56;;;-146.10;91.50
12763;BME280;6445;52.490;13.378;2022-11-20T07:29:14;88330.16;;;-146.10;91.46
12763;BME280;6445;52.490;13.378;2022-11-20T07:31:39;88588.56;;;-146.10;91.12
12763;BME280;6445;52.490;13.378;2022-11-20T07:34:04;88071.75;;;-146.10;91.17
12763;BME280;6445;52.490;13.378;2022-11-20T07:36:30;87813.38;;;-146.10;90.94
12763;BME280;6445;52.490;13.378;2022-11-20T07:38:55;87296.69;;;-146.10;91.03
12763;BME280;6445;52.490;13.378;2022-11-20T07:41:20;86780.03;;;-146.10;90.86
12763;BME280;6445;52.490;13.378;2022-11-20T07:43:45;85746.97;;;-146.10;90.35
12763;BME280;6445;52.490;13.378;2022-11-20T07:46:11;85746.97;;;-146.10;90.73
12763;BME280;6445;52.490;13.378;2022-11-20T07:48:36;85746.97;;;-146.10;90.47
12763;BME280;6445;52.490;13.378;2022-11-20T07:51:01;84455.97;;;-146.10;90.09
12763;BME280;6445;52.490;13.378;2022-11-20T07:53:26;83165.41;;;-146.10;90.19
12763;BME280;6445;52.490;13.378;2022-11-20T07:55:52;81875.25;;;-146.10;89.93
12763;BME280;6445;52.490;13.378;2022-11-20T07:58:20;80585.50;;;-146.10;89.57
12763;BME280;6445;52.490;13.378;2022-11-20T08:00:46;79554.03;;;-146.10;89.23
12763;BME280;6445;52.490;13.378;2022-11-20T08:03:11;78265.03;;;-146.10;88.99
12763;BME280;6445;52.490;13.378;2022-11-20T08:05:37;77491.84;;;-146.10;88.93
12763;BME280;6445;52.490;13.378;2022-11-20T08:08:02;77491.84;;;-146.10;88.78
12763;BME280;6445;52.490;13.378;2022-11-20T08:10:27;76976.44;;;-146.10;88.87
12763;BME280;6445;52.490;13.378;2022-11-20T08:12:53;76976.44;;;-146.10;88.68
12763;BME280;6445;52.490;13.378;2022-11-20T08:15:38;76718.78;;;-146.10;88.89
12763;BME280;6445;52.490;13.378;2022-11-20T08:18:07;75945.88;;;-146.10;88.65
12763;BME280;6445;52.490;13.378;2022-11-20T08:20:33;75945.88;;;-146.10;88.55
12763;BME280;6445;52.490;13.378;2022-11-20T08:23:03;74400.53;;;-146.10;88.47
12763;BME280;6445;52.490;13.378;2022-11-20T08:25:30;72598.38;;;-146.10;88.09
12763;BME280;6445;52.490;13.378;2022-11-20T08:28:00;74400.53;;;-146.10;88.41
12763;BME280;6445;52.490;13.378;2022-11-20T08:30:26;72855.78;;;-146.10;88.10
12763;BME280;6445;52.490;13.378;2022-11-20T08:32:51;71054.31;;;-146.10;87.74
12763;BME280;6445;52.490;13.378;2022-11-20T08:35:17;72598.38;;;-146.10;88.04
12763;BME280;6445;52.490;13.378;2022-11-20T08:37:46;73370.63;;;-146.10;87.97
12763;BME280;6445;52.490;13.378;2022-11-20T08:40:11;73370.63;;;-146.10;87.95
12763;BME280;6445;52.490;13.378;2022-11-20T08:42:36;73113.19;;;-146.10;88.01
12763;BME280;6445;52.490;13.378;2022-11-20T08:45:02;74143.03;;;-146.10;88.39
12763;BME280;6445;52.490;13.378;2022-11-20T08:47:27;75173.13;;;-146.10;88.52
12763;BME280;6445;52.490;13.378;2022-11-20T08:49:53;75173.13;;;-146.10;88.19
12763;BME280;6445;52.490;13.378;2022-11-20T08:52:18;74658.06;;;-146.10;88.10
12763;BME280;6445;52.490;13.378;2022-11-20T08:54:43;75945.88;;;-146.10;88.54
12763;BME280;6445;52.490;13.378;2022-11-20T08:57:08;74658.06;;;-146.10;88.04
12763;BME280;6445;52.490;13.378;2022-11-20T08:59:34;73628.09;;;-146.10;88.09
12763;BME280;6445;52.490;13.378;2022-11-20T09:01:59;73885.56;;;-146.10;88.15
12763;BME280;6445;52.490;13.378;2022-11-20T09:04:24;72855.78;;;-146.10;87.99
12763;BME280;6445;52.490;13.378;2022-11-20T09:06:49;73370.63;;;-146.10;87.97
12763;BME280;6445;52.490;13.378;2022-11-20T09:09:17;73370.63;;;-146.10;87.97
12763;BME280;6445;52.490;13.378;2022-11-20T09:11:43;72341.00;;;-146.10;87.61
12763;BME280;6445;52.490;13.378;2022-11-20T09:14:09;69028.66;;;-146.10;87.30
12763;BME280;6445;52.490;13.378;2022-11-20T09:16:34;69100.97;;;-146.10;87.00
12763;BME280;6445;52.490;13.378;2022-11-20T09:18:59;67323.31;;;-146.10;86.83
12763;BME280;6445;52.490;13.378;2022-11-20T09:21:24;68219.06;;;-146.10;86.91
12763;BME280;6445;52.490;13.378;2022-11-20T09:23:50;70025.28;;;-146.10;87.46
12763;BME280;6445;52.490;13.378;2022-11-20T09:26:15;66576.31;;;-146.10;86.76
12763;BME280;6445;52.490;13.378;2022-11-20T09:28:40;67421.72;;;-146.10;86.94
12763;BME280;6445;52.490;13.378;2022-11-20T09:31:23;69737.91;;;-146.10;87.36
12763;BME280;6445;52.490;13.378;2022-11-20T09:33:48;69510.84;;;-146.10;87.32
12763;BME280;6445;52.490;13.378;2022-11-20T09:36:13;68916.13;;;-146.10;87.15
12763;BME280;6445;52.490;13.378;2022-11-20T09:38:39;68008.16;;;-146.10;87.18
12763;BME280;6445;52.490;13.378;2022-11-20T09:41:06;68423.97;;;-146.10;87.06
12763;BME280;6445;52.490;13.378;2022-11-20T09:43:59;65446.06;;;-146.10;86.57
12763;BME280;6445;52.490;13.378;2022-11-20T09:46:39;63282.78;;;-146.10;86.28
12763;BME280;6445;52.490;13.378;2022-11-20T09:49:51;62939.75;;;-146.10;85.99
12763;BME280;6445;52.490;13.378;2022-11-20T09:52:26;62161.50;;;-146.10;86.06
12763;BME280;6445;52.490;13.378;2022-11-20T09:54:54;61776.44;;;-146.10;85.80
12763;BME280;6445;52.490;13.378;2022-11-20T09:57:34;60691.63;;;-146.10;85.56
12763;BME280;6445;52.490;13.378;2022-11-20T10:00:05;60421.00;;;-146.10;85.35
12763;BME280;6445;52.490;13.378;2022-11-20T10:02:39;59763.47;;;-146.10;85.13
12763;BME280;6445;52.490;13.378;2022-11-20T10:05:15;59743.44;;;-146.10;85.31
12763;BME280;6445;52.490;13.378;2022-11-20T10:07:53;59404.72;;;-146.10;85.16
12763;BME280;6445;52.490;13.378;2022-11-20T10:10:42;58723.31;;;-146.10;84.67
12763;BME280;6445;52.490;13.378;2022-11-20T10:19:09;57537.19;;;-146.10;84.50
12763;BME280;6445;52.490;13.378;2022-11-20T10:21:55;57863.75;;;-146.10;84.56
12763;BME280;6445;52.490;13.378;2022-11-20T10:24:42;59304.50;;;-146.10;85.21
12763;BME280;6445;52.490;13.378;2022-11-20T10:27:43;60068.16;;;-146.10;85.36
12763;BME280;6445;52.490;13.378;2022-11-20T10:30:14;59961.94;;;-146.10;85.49
12763;BME280;6445;52.490;13.378;2022-11-20T10:32:43;60926.22;;;-146.10;85.61
12763;BME280;6445;52.490;13.378;2022-11-20T10:37:50;59990.00;;;-146.10;85.28
12763;BME280;6445;52.490;13.378;2022-11-20T10:42:48;59957.91;;;-146.10;85.17
12763;BME280;6445;52.490;13.378;2022-11-20T10:45:36;59661.25;;;-146.10;85.43
12763;BME280;6445;52.490;13.378;2022-11-20T10:48:22;58280.50;;;-146.10;84.39
12763;BME280;6445;52.490;13.378;2022-11-20T10:53:57;57010.38;;;-146.10;83.60
12763;BME280;6445;52.490;13.378;2022-11-20T10:56:31;56045.03;;;-146.10;82.70
12763;BME280;6445;52.490;13.378;2022-11-20T10:59:28;55123.97;;;-146.10;81.86
12763;BME280;6445;52.490;13.378;2022-11-20T11:01:58;54813.66;;;-146.10;81.81
12763;BME280;6445;52.490;13.378;2022-11-20T11:05:12;54671.53;;;-146.10;81.62
12763;BME280;6445;52.490;13.378;2022-11-20T11:07:33;54137.06;;;-146.10;81.00
12763;BME280;6445;52.490;13.378;2022-11-20T11:09:59;54157.09;;;-146.10;81.33
12763;BME280;6445;52.490;13.378;2022-11-20T11:12:27;54147.09;;;-146.10;80.94
12763;BME280;6445;52.490;13.378;2022-11-20T11:14:54;53382.56;;;-146.10;78.89
12763;BME280;6445;52.490;13.378;2022-11-20T11:20:18;52692.19;;;-146.10;76.66
12763;BME280;6445;52.490;13.378;2022-11-20T11:22:51;52748.22;;;-146.10;77.50
12763;BME280;6445;52.490;13.378;2022-11-20T11:25:30;52834.25;;;-146.10;77.81
12763;BME280;6445;52.490;13.378;2022-11-20T11:28:00;52788.25;;;-146.10;77.79
12763;BME280;6445;52.490;13.378;2022-11-20T11:30:28;52834.25;;;-146.10;78.07
12763;BME280;6445;52.490;13.378;2022-11-20T11:33:05;52876.28;;;-146.10;78.46
12763;BME280;6445;52.490;13.378;2022-11-20T11:35:32;53034.34;;;-146.10;79.14
12763;BME280;6445;52.490;13.378;2022-11-20T11:38:06;53110.41;;;-146.10;78.95
12763;BME280;6445;52.490;13.378;2022-11-20T11:40:33;53116.41;;;-146.10;79.34
12763;BME280;6445;52.490;13.378;2022-11-20T11:43:04;53266.47;;;-146.10;80.16
12763;BME280;6445;52.490;13.378;2022-11-20T11:45:30;53594.69;;;-146.10;80.99
12763;BME280;6445;52.490;13.378;2022-11-20T11:47:57;53582.69;;;-146.10;80.55
12763;BME280;6445;52.490;13.378;2022-11-20T11:50:26;53498.63;;;-146.10;80.19
12763;BME280;6445;52.490;13.378;2022-11-20T11:53:17;53912.91;;;-146.10;81.10
12763;BME280;6445;52.490;13.378;2022-11-20T11:56:09;54053.00;;;-146.10;81.44
12763;BME280;6445;52.490;13.378;2022-11-20T11:58:43;54541.41;;;-146.10;82.49
12763;BME280;6445;52.490;13.378;2022-11-20T12:01:30;55138.00;;;-146.10;83.22
12763;BME280;6445;52.490;13.378;2022-11-20T12:04:17;55816.75;;;-146.10;83.49
12763;BME280;6445;52.490;13.378;2022-11-20T12:06:51;56998.34;;;-146.10;83.95
12763;BME280;6445;52.490;13.378;2022-11-20T12:09:20;57344.91;;;-146.10;84.04
12763;BME280;6445;52.490;13.378;2022-11-20T12:12:01;56776.03;;;-146.10;83.47
12763;BME280;6445;52.490;13.378;2022-11-20T12:14:37;56357.44;;;-146.10;83.41
12763;BME280;6445;52.490;13.378;2022-11-20T12:17:04;56499.63;;;-146.10;83.45
12763;BME280;6445;52.490;13.378;2022-11-20T12:19:31;56081.06;;;-146.10;83.06
12763;BME280;6445;52.490;13.378;2022-11-20T12:25:06;55007.84;;;-146.10;81.72
12763;BME280;6445;52.490;13.378;2022-11-20T12:27:46;54577.44;;;-146.10;81.21
12763;BME280;6445;52.490;13.378;2022-11-20T12:30:18;53994.97;;;-146.10;80.66
12763;BME280;6445;52.490;13.378;2022-11-20T12:32:57;54077.03;;;-146.10;80.94
12763;BME280;6445;52.490;13.378;2022-11-20T12:35:44;54389.28;;;-146.10;81.39
12763;BME280;6445;52.490;13.378;2022-11-20T12:42:03;53462.59;;;-146.10;79.57
12763;BME280;6445;52.490;13.378;2022-11-20T12:56:35;53444.59;;;-146.10;80.12
12763;BME280;6445;52.490;13.378;2022-11-20T12:59:17;53486.63;;;-146.10;80.33
12763;BME280;6445;52.490;13.378;2022-11-20T13:01:48;53916.91;;;-146.10;81.27
12763;BME280;6445;52.490;13.378;2022-11-20T13:07:05;54403.28;;;-146.10;81.96
12763;BME280;6445;52.490;13.378;2022-11-20T13:09:37;54103.03;;;-146.10;81.15
12763;BME280;6445;52.490;13.378;2022-11-20T13:12:22;53926.91;;;-146.10;80.63
12763;BME280;6445;52.490;13.378;2022-11-20T13:14:55;53944.94;;;-146.10;80.82
12763;BME280;6445;52.490;13.378;2022-11-20T13:17:34;54107.06;;;-146.10;81.72
12763;BME280;6445;52.490;13.378;2022-11-20T13:20:02;54459.34;;;-146.10;82.18
12763;BME280;6445;52.490;13.378;2022-11-20T13:22:31;54725.56;;;-146.10;82.45
12763;BME280;6445;52.490;13.378;2022-11-20T13:25:10;55550.44;;;-146.10;83.10
12763;BME280;6445;52.490;13.378;2022-11-20T13:27:35;55752.66;;;-146.10;83.41